Time;durP1;ratioP1;P1;durP2;ratioP2;P2;SDS_P1;SDS_P2;PMS_P1;PMS_P2;Temp;Humidity;BMP_temperature;BMP_pressure;BME280_temperature;BME280_humidity;BME280_pressure;Samples;Min_cycle;Max_cycle;Signal;HPM_P1;HPM_P2
2024/02/11 00:01:08;;;;;;;;;;;6.20;99.90;;;;;;21363091;27;19993;-80
2024/02/11 00:11:12;;;;;;;;;;;6.10;99.90;;;;;;21358130;27;19915;-78
2024/02/11 00:21:13;;;;;;;;;;;5.90;99.90;;;;;;21378534;27;19954;-79
2024/02/11 00:31:14;;;;;;;;;;;5.70;99.90;;;;;;21379339;27;19911;-80
2024/02/11 00:41:15;;;;;;;;;;;5.60;99.90;;;;;;21381245;27;19950;-80
2024/02/11 00:51:19;;;;;;;;;;;5.40;99.90;;;;;;21380333;27;19916;-79
2024/02/11 01:01:22;;;;;;;;;;;5.30;99.90;;;;;;21371141;27;19926;-80
2024/02/11 01:11:23;;;;;;;;;;;5.20;99.90;;;;;;21359983;27;20670;-79
2024/02/11 01:21:24;;;;;;;;;;;5.20;99.90;;;;;;21363846;27;19915;-80
2024/02/11 01:31:25;;;;;;;;;;;5.20;99.90;;;;;;21346750;27;20374;-78
2024/02/11 01:41:25;;;;;;;;;;;5.10;99.90;;;;;;21358812;27;19915;-76
2024/02/11 01:51:26;;;;;;;;;;;5.00;99.90;;;;;;21341942;27;19911;-80
2024/02/11 02:01:27;;;;;;;;;;;5.00;99.90;;;;;;21362642;27;19915;-79
2024/02/11 02:11:29;;;;;;;;;;;5.00;99.90;;;;;;21298543;27;1884421;-80
2024/02/11 02:21:30;;;;;;;;;;;5.00;99.90;;;;;;21373829;27;19915;-80
2024/02/11 02:31:30;;;;;;;;;;;4.90;99.90;;;;;;21379071;27;20558;-80
2024/02/11 02:41:31;;;;;;;;;;;4.90;99.90;;;;;;21375039;27;19915;-80
2024/02/11 02:51:32;;;;;;;;;;;4.80;99.90;;;;;;21367723;27;19915;-78
2024/02/11 03:01:32;;;;;;;;;;;4.80;99.90;;;;;;21311069;27;19916;-79
2024/02/11 03:11:39;;;;;;;;;;;4.90;99.90;;;;;;21264155;27;19959;-76
2024/02/11 03:21:40;;;;;;;;;;;4.80;99.90;;;;;;21251691;27;20003;-80
2024/02/11 03:31:41;;;;;;;;;;;4.80;99.90;;;;;;21212808;27;19984;-80
2024/02/11 03:41:42;;;;;;;;;;;4.80;99.90;;;;;;21229758;27;20336;-78
2024/02/11 03:51:43;;;;;;;;;;;4.80;99.90;;;;;;21213584;27;19971;-78
2024/02/11 04:01:44;;;;;;;;;;;4.80;99.90;;;;;;21199098;27;19924;-80
2024/02/11 04:11:47;;;;;;;;;;;4.70;99.90;;;;;;21213147;27;19974;-80
2024/02/11 04:21:48;;;;;;;;;;;4.80;99.90;;;;;;21242532;28;19978;-80
2024/02/11 04:31:49;;;;;;;;;;;4.80;99.90;;;;;;21196468;28;19968;-79
2024/02/11 04:41:49;;;;;;;;;;;4.90;99.90;;;;;;21147886;28;20294;-80
2024/02/11 04:51:50;;;;;;;;;;;4.90;99.90;;;;;;21167007;28;20014;-80
2024/02/11 05:01:50;;;;;;;;;;;4.80;99.90;;;;;;21160256;28;19943;-79
2024/02/11 05:11:54;;;;;;;;;;;4.80;99.90;;;;;;21283653;27;20006;-80
2024/02/11 05:21:54;;;;;;;;;;;4.80;99.90;;;;;;21304606;27;19957;-80
2024/02/11 05:31:55;;;;;;;;;;;4.80;99.90;;;;;;21309757;27;19911;-80
2024/02/11 05:41:56;;;;;;;;;;;4.80;99.90;;;;;;21292302;27;19964;-80
2024/02/11 05:51:57;;;;;;;;;;;4.80;99.90;;;;;;21293787;27;19917;-80
2024/02/11 06:02:00;;;;;;;;;;;4.90;99.90;;;;;;21290370;27;19915;-80
2024/02/11 06:12:00;;;;;;;;;;;5.00;99.90;;;;;;21290259;27;19919;-80
2024/02/11 06:22:01;;;;;;;;;;;5.00;99.90;;;;;;21305340;27;20417;-80
2024/02/11 06:32:02;;;;;;;;;;;5.00;99.90;;;;;;21279032;27;19918;-80
2024/02/11 06:42:03;;;;;;;;;;;5.10;99.90;;;;;;21297600;27;19915;-80
2024/02/11 06:52:09;;;;;;;;;;;5.10;99.90;;;;;;21299926;27;19934;-80
2024/02/11 07:02:10;;;;;;;;;;;5.10;99.90;;;;;;21300029;27;19920;-79
2024/02/11 07:12:11;;;;;;;;;;;5.10;99.90;;;;;;21290306;27;20293;-79
2024/02/11 07:22:13;;;;;;;;;;;5.10;99.90;;;;;;21280996;27;19915;-80
2024/02/11 07:32:14;;;;;;;;;;;5.20;99.90;;;;;;21300275;27;19937;-80
2024/02/11 07:42:15;;;;;;;;;;;5.30;99.90;;;;;;21296354;27;19951;-80
2024/02/11 07:52:17;;;;;;;;;;;5.40;99.90;;;;;;21262908;27;19955;-80
2024/02/11 08:02:19;;;;;;;;;;;5.40;99.90;;;;;;21299426;27;20347;-80
2024/02/11 08:12:19;;;;;;;;;;;5.60;99.90;;;;;;21239155;27;19915;-79
2024/02/11 08:22:21;;;;;;;;;;;5.70;99.90;;;;;;21223440;27;19925;-79
2024/02/11 08:32:22;;;;;;;;;;;5.70;99.90;;;;;;21206707;27;19954;-79
2024/02/11 08:42:22;;;;;;;;;;;5.70;99.90;;;;;;21252825;27;19915;-79
2024/02/11 08:52:23;;;;;;;;;;;5.70;99.90;;;;;;21245347;27;19918;-80
2024/02/11 09:02:26;;;;;;;;;;;5.70;99.90;;;;;;21228421;27;20007;-79
2024/02/11 09:12:26;;;;;;;;;;;5.80;99.90;;;;;;21298900;27;19922;-79
2024/02/11 09:22:27;;;;;;;;;;;5.70;99.90;;;;;;21315560;27;19951;-80
2024/02/11 09:32:28;;;;;;;;;;;5.80;99.90;;;;;;21298948;27;19920;-79
2024/02/11 09:42:29;;;;;;;;;;;6.00;99.90;;;;;;21290205;27;20034;-80
2024/02/11 09:52:29;;;;;;;;;;;6.00;99.90;;;;;;21261258;27;19918;-79
2024/02/11 10:02:31;;;;;;;;;;;6.30;99.90;;;;;;21280389;27;20275;-79
2024/02/11 10:12:32;;;;;;;;;;;6.70;99.90;;;;;;21216148;27;19915;-78
2024/02/11 10:22:32;;;;;;;;;;;6.50;99.90;;;;;;21227203;27;19954;-78
2024/02/11 10:32:34;;;;;;;;;;;7.10;99.90;;;;;;21232360;27;19912;-79
2024/02/11 10:42:35;;;;;;;;;;;7.10;99.90;;;;;;21226979;27;20320;-79
2024/02/11 10:52:37;;;;;;;;;;;8.00;99.90;;;;;;21213226;27;19954;-78
2024/02/11 11:02:38;;;;;;;;;;;8.50;99.90;;;;;;21222831;27;19915;-79
2024/02/11 11:12:46;;;;;;;;;;;8.50;99.90;;;;;;21307180;27;19915;-79
2024/02/11 11:22:50;;;;;;;;;;;8.70;99.90;;;;;;21311267;27;19923;-80
2024/02/11 11:32:52;;;;;;;;;;;9.20;99.90;;;;;;21306509;27;19959;-80
2024/02/11 11:42:52;;;;;;;;;;;9.40;99.90;;;;;;21316882;27;19919;-78
2024/02/11 11:52:59;;;;;;;;;;;9.70;99.90;;;;;;21311815;27;19918;-78
2024/02/11 12:03:00;;;;;;;;;;;9.90;99.90;;;;;;21297300;27;20005;-79
2024/02/11 12:13:01;;;;;;;;;;;9.70;99.90;;;;;;21291048;27;20377;-78
2024/02/11 12:23:02;;;;;;;;;;;9.20;99.90;;;;;;21329989;27;19997;-78
2024/02/11 12:33:03;;;;;;;;;;;9.30;99.90;;;;;;21337313;27;19915;-79
2024/02/11 12:43:04;;;;;;;;;;;8.90;99.90;;;;;;21319048;27;19919;-78
2024/02/11 12:53:05;;;;;;;;;;;8.60;99.90;;;;;;21328791;27;19911;-78
2024/02/11 13:03:07;;;;;;;;;;;8.90;99.90;;;;;;21331554;27;19953;-79
2024/02/11 13:13:09;;;;;;;;;;;8.90;99.90;;;;;;21331519;27;19921;-79
2024/02/11 13:23:10;;;;;;;;;;;8.80;99.90;;;;;;21303757;27;19946;-79
2024/02/11 13:33:13;;;;;;;;;;;9.60;99.90;;;;;;21307995;27;19911;-79
2024/02/11 13:43:14;;;;;;;;;;;9.60;99.90;;;;;;21271456;27;19945;-78
2024/02/11 13:53:15;;;;;;;;;;;9.10;99.90;;;;;;21306768;27;19911;-78
2024/02/11 14:03:15;;;;;;;;;;;9.40;99.90;;;;;;21374124;27;19911;-79
2024/02/11 14:13:16;;;;;;;;;;;9.80;99.90;;;;;;21350259;27;20130;-78
2024/02/11 14:23:17;;;;;;;;;;;9.80;99.90;;;;;;21318723;27;19912;-76
2024/02/11 14:33:19;;;;;;;;;;;9.40;99.90;;;;;;21330134;27;19911;-77
2024/02/11 14:43:20;;;;;;;;;;;8.80;99.90;;;;;;21346512;27;19917;-78
2024/02/11 14:53:21;;;;;;;;;;;8.60;99.90;;;;;;21345576;27;19919;-78
2024/02/11 15:03:22;;;;;;;;;;;8.30;99.90;;;;;;21331213;27;20006;-77
2024/02/11 15:13:23;;;;;;;;;;;8.10;99.90;;;;;;21328781;27;19918;-78
2024/02/11 15:23:23;;;;;;;;;;;9.70;99.90;;;;;;21345225;27;19911;-78
2024/02/11 15:33:24;;;;;;;;;;;10.40;99.90;;;;;;21351048;27;19922;-78
2024/02/11 15:43:25;;;;;;;;;;;9.00;99.90;;;;;;21350611;27;19961;-78
2024/02/11 15:53:25;;;;;;;;;;;8.70;99.90;;;;;;21350923;27;19915;-79
2024/02/11 16:03:26;;;;;;;;;;;8.70;99.90;;;;;;21360971;27;19932;-79
2024/02/11 16:13:27;;;;;;;;;;;8.50;99.90;;;;;;21331850;27;20388;-78
2024/02/11 16:23:27;;;;;;;;;;;8.30;99.90;;;;;;21330519;27;19915;-77
2024/02/11 16:33:33;;;;;;;;;;;8.20;99.90;;;;;;21298173;27;20422;-79
2024/02/11 16:43:33;;;;;;;;;;;8.10;99.90;;;;;;21353437;27;19926;-78
2024/02/11 16:53:34;;;;;;;;;;;7.90;99.90;;;;;;21355835;27;19915;-78
2024/02/11 17:03:35;;;;;;;;;;;7.90;99.90;;;;;;21372336;27;19955;-79
2024/02/11 17:13:36;;;;;;;;;;;7.70;99.90;;;;;;21367121;27;20434;-79
2024/02/11 17:23:37;;;;;;;;;;;7.50;99.90;;;;;;21297688;27;20426;-79
2024/02/11 17:33:38;;;;;;;;;;;7.30;99.90;;;;;;21332019;27;19976;-79
2024/02/11 17:43:40;;;;;;;;;;;7.40;99.90;;;;;;21318683;27;19963;-78
2024/02/11 17:53:42;;;;;;;;;;;7.70;99.90;;;;;;21334844;27;19919;-79
2024/02/11 18:03:43;;;;;;;;;;;7.60;99.90;;;;;;21324435;27;19910;-79
2024/02/11 18:13:44;;;;;;;;;;;7.40;99.90;;;;;;21318412;27;20288;-78
2024/02/11 18:23:44;;;;;;;;;;;7.10;99.90;;;;;;21323082;27;19921;-79
2024/02/11 18:33:45;;;;;;;;;;;7.10;99.90;;;;;;21318749;27;19915;-79
2024/02/11 18:43:47;;;;;;;;;;;7.20;99.90;;;;;;21324311;27;19918;-79
2024/02/11 18:53:48;;;;;;;;;;;7.40;99.90;;;;;;21293427;27;20002;-79
2024/02/11 19:03:48;;;;;;;;;;;7.50;99.90;;;;;;21308672;27;19920;-78
2024/02/11 19:13:49;;;;;;;;;;;7.50;99.90;;;;;;21206757;27;19954;-78
2024/02/11 19:23:50;;;;;;;;;;;7.40;99.90;;;;;;21223537;27;19916;-78
2024/02/11 19:33:52;;;;;;;;;;;7.30;99.90;;;;;;21235240;27;20417;-79
2024/02/11 19:43:54;;;;;;;;;;;7.00;99.90;;;;;;21273824;27;19964;-78
2024/02/11 19:53:55;;;;;;;;;;;6.80;99.90;;;;;;21265070;27;19940;-78
2024/02/11 20:03:56;;;;;;;;;;;6.60;99.90;;;;;;21239379;27;20002;-79
2024/02/11 20:13:57;;;;;;;;;;;6.60;99.90;;;;;;21207641;27;20404;-77
2024/02/11 20:23:57;;;;;;;;;;;6.80;99.90;;;;;;21227130;27;19913;-79
2024/02/11 20:33:58;;;;;;;;;;;6.80;99.90;;;;;;21242114;27;20006;-78
2024/02/11 20:43:58;;;;;;;;;;;6.80;99.90;;;;;;21252012;27;19920;-78
2024/02/11 20:54:00;;;;;;;;;;;6.70;99.90;;;;;;21247333;27;19977;-79
2024/02/11 21:04:02;;;;;;;;;;;6.60;99.90;;;;;;21253751;27;19917;-80
2024/02/11 21:14:07;;;;;;;;;;;6.50;99.90;;;;;;21329594;27;19915;-78
2024/02/11 21:24:10;;;;;;;;;;;6.40;99.90;;;;;;21332251;27;19911;-78
2024/02/11 21:34:10;;;;;;;;;;;6.40;99.90;;;;;;21345054;27;20305;-79
2024/02/11 21:44:20;;;;;;;;;;;6.40;99.90;;;;;;21334226;27;19915;-78
2024/02/11 21:54:20;;;;;;;;;;;6.40;99.90;;;;;;21321525;27;19915;-79
2024/02/11 22:04:21;;;;;;;;;;;6.50;99.90;;;;;;21329670;27;19951;-79
2024/02/11 22:14:22;;;;;;;;;;;6.40;99.90;;;;;;21328229;27;19915;-79
2024/02/11 22:24:23;;;;;;;;;;;6.40;99.90;;;;;;21300148;27;19956;-79
2024/02/11 22:34:24;;;;;;;;;;;6.30;99.90;;;;;;21299214;27;19915;-78
2024/02/11 22:44:26;;;;;;;;;;;6.30;99.90;;;;;;21293625;27;19911;-78
2024/02/11 22:54:27;;;;;;;;;;;6.40;99.90;;;;;;21289965;27;20009;-79
2024/02/11 23:04:30;;;;;;;;;;;6.30;99.90;;;;;;21288121;27;19945;-78
2024/02/11 23:14:31;;;;;;;;;;;6.40;99.90;;;;;;21279126;27;19954;-79
2024/02/11 23:24:34;;;;;;;;;;;6.40;99.90;;;;;;21292323;27;19915;-79
2024/02/11 23:34:35;;;;;;;;;;;6.40;99.90;;;;;;21304729;27;19915;-79
2024/02/11 23:44:35;;;;;;;;;;;6.40;99.90;;;;;;21284556;27;20011;-79
2024/02/11 23:54:38;;;;;;;;;;;6.30;99.90;;;;;;21291542;27;19962;-79
